createdAt,value
2022-08-16T00:00:22.239Z,65.75
2022-08-16T00:02:49.849Z,65.71
2022-08-16T00:05:19.497Z,66.13
2022-08-16T00:07:47.303Z,65.93
2022-08-16T00:10:20.721Z,66.16
2022-08-16T00:12:49.899Z,65.99
2022-08-16T00:15:51.420Z,65.86
2022-08-16T00:18:17.416Z,65.83
2022-08-16T00:20:47.423Z,66.10
2022-08-16T00:23:17.969Z,66.18
2022-08-16T00:26:36.696Z,66.16
2022-08-16T00:28:38.116Z,66.39
2022-08-16T00:31:06.514Z,66.41
2022-08-16T00:33:35.673Z,66.38
2022-08-16T00:36:02.660Z,66.57
2022-08-16T00:38:40.342Z,66.42
2022-08-16T00:41:08.476Z,66.48
2022-08-16T00:43:42.966Z,66.46
2022-08-16T00:46:33.810Z,66.76
2022-08-16T00:49:05.270Z,66.88
2022-08-16T00:51:31.973Z,66.55
2022-08-16T00:53:58.994Z,66.87
2022-08-16T00:56:55.498Z,66.73
2022-08-16T00:59:20.555Z,67.03
2022-08-16T01:01:52.125Z,67.33
2022-08-16T01:04:29.410Z,67.38
2022-08-16T01:07:01.172Z,67.11
2022-08-16T01:09:33.690Z,67.21
2022-08-16T01:12:03.342Z,67.23
2022-08-16T01:14:36.463Z,67.31
2022-08-16T01:17:08.253Z,67.41
2022-08-16T01:19:50.576Z,67.07
2022-08-16T01:22:50.293Z,67.48
2022-08-16T01:25:33.683Z,67.05
2022-08-16T01:28:07.128Z,67.25
2022-08-16T01:30:49.591Z,67.17
2022-08-16T01:33:19.417Z,67.74
2022-08-16T01:35:56.155Z,67.43
2022-08-16T01:38:36.733Z,67.29
2022-08-16T01:41:19.253Z,67.23
2022-08-16T01:43:53.638Z,67.11
2022-08-16T01:46:40.166Z,67.21
2022-08-16T01:49:42.991Z,67.30
2022-08-16T01:52:28.306Z,67.38
2022-08-16T01:55:17.833Z,67.41
2022-08-16T01:57:53.730Z,67.21
2022-08-16T02:00:29.169Z,67.08
2022-08-16T02:02:57.908Z,67.23
2022-08-16T02:05:24.581Z,67.09
2022-08-16T02:07:52.149Z,67.41
2022-08-16T02:10:20.981Z,67.51
2022-08-16T02:12:55.938Z,67.54
2022-08-16T02:15:29.863Z,67.88
2022-08-16T02:18:01.140Z,67.26
2022-08-16T02:20:36.466Z,68.17
2022-08-16T02:23:09.650Z,68.40
2022-08-16T02:25:52.268Z,68.34
2022-08-16T02:28:24.260Z,68.52
2022-08-16T02:30:52.860Z,68.37
2022-08-16T02:33:24.795Z,68.19
2022-08-16T02:36:11.916Z,68.76
2022-08-16T02:38:41.609Z,68.61
2022-08-16T02:41:10.009Z,68.81
2022-08-16T02:43:39.295Z,68.74
2022-08-16T02:46:08.612Z,68.61
2022-08-16T02:48:38.496Z,68.52
2022-08-16T02:51:10.945Z,68.50
2022-08-16T02:53:46.158Z,68.33
2022-08-16T02:56:18.027Z,68.84
2022-08-16T02:58:47.201Z,68.81
2022-08-16T03:01:24.988Z,68.64
2022-08-16T03:04:41.375Z,68.88
2022-08-16T03:07:03.884Z,69.30
2022-08-16T03:09:44.585Z,68.82
2022-08-16T03:12:16.387Z,69.28
2022-08-16T03:14:44.680Z,69.16
2022-08-16T03:17:12.707Z,69.59
2022-08-16T03:19:52.806Z,69.58
2022-08-16T03:22:28.787Z,69.61
2022-08-16T03:25:04.671Z,69.53
2022-08-16T03:27:39.113Z,69.19
2022-08-16T03:30:21.603Z,69.11
2022-08-16T03:32:55.377Z,68.99
2022-08-16T03:35:32.713Z,69.32
2022-08-16T03:38:34.159Z,69.00
2022-08-16T03:40:53.384Z,69.00
2022-08-16T03:43:24.207Z,69.08
2022-08-16T03:46:13.909Z,68.86
2022-08-16T03:49:00.647Z,68.71
2022-08-16T03:51:28.695Z,68.97
2022-08-16T03:54:01.702Z,68.57
2022-08-16T03:56:31.415Z,68.59
2022-08-16T03:59:00.155Z,68.49
2022-08-16T04:01:33.302Z,68.18
2022-08-16T04:04:01.126Z,68.38
2022-08-16T04:06:29.115Z,67.94
2022-08-16T04:08:55.771Z,68.29
2022-08-16T04:11:24.703Z,68.01
2022-08-16T04:14:01.460Z,67.69
2022-08-16T04:16:40.255Z,67.73
2022-08-16T04:19:31.879Z,67.61
2022-08-16T04:22:00.784Z,67.98
2022-08-16T04:24:31.326Z,67.77
2022-08-16T04:26:58.942Z,67.63
2022-08-16T04:29:27.794Z,67.84
2022-08-16T04:32:10.959Z,67.47
2022-08-16T04:34:40.961Z,67.49
2022-08-16T04:37:08.723Z,67.55
2022-08-16T04:39:47.205Z,67.18
2022-08-16T04:42:26.368Z,67.43
2022-08-16T04:44:58.429Z,66.75
2022-08-16T04:47:35.463Z,66.79
2022-08-16T04:50:10.382Z,66.17
2022-08-16T04:52:37.876Z,65.99
2022-08-16T04:55:17.590Z,66.04
2022-08-16T04:57:53.736Z,65.94
2022-08-16T05:00:32.678Z,65.49
2022-08-16T05:03:09.626Z,65.00
2022-08-16T05:05:55.458Z,64.90
2022-08-16T05:08:29.199Z,64.29
2022-08-16T05:11:20.275Z,64.16
2022-08-16T05:13:47.961Z,63.60
2022-08-16T05:16:24.801Z,63.01
2022-08-16T05:18:59.946Z,62.90
2022-08-16T05:21:38.084Z,63.35
2022-08-16T05:24:09.061Z,62.71
2022-08-16T05:26:37.514Z,62.72
2022-08-16T05:29:11.141Z,62.63
2022-08-16T05:31:48.413Z,62.11
2022-08-16T05:34:22.297Z,61.96
2022-08-16T05:36:52.997Z,61.13
2022-08-16T05:39:22.462Z,61.30
2022-08-16T05:41:51.696Z,61.31
2022-08-16T05:44:24.193Z,60.34
2022-08-16T05:46:57.329Z,60.45
2022-08-16T05:49:38.804Z,59.81
2022-08-16T05:52:11.339Z,59.19
2022-08-16T05:54:47.594Z,58.83
2022-08-16T05:57:18.537Z,58.61
2022-08-16T05:59:50.656Z,59.03
2022-08-16T06:02:33.352Z,59.30
2022-08-16T06:05:02.177Z,59.00
2022-08-16T06:07:29.569Z,59.83
2022-08-16T06:10:06.812Z,58.58
2022-08-16T06:12:37.009Z,58.78
2022-08-16T06:15:11.618Z,58.27
2022-08-16T06:17:44.389Z,58.06
2022-08-16T06:20:23.426Z,58.05
2022-08-16T06:22:58.859Z,57.81
2022-08-16T06:25:39.474Z,58.62
2022-08-16T06:28:10.297Z,58.39
2022-08-16T06:30:45.297Z,58.01
2022-08-16T06:33:22.222Z,58.63
2022-08-16T06:35:55.202Z,58.38
2022-08-16T06:38:33.889Z,58.17
2022-08-16T06:41:07.280Z,57.62
2022-08-16T06:43:41.960Z,57.79
2022-08-16T06:46:31.641Z,58.08
2022-08-16T06:49:05.226Z,57.95
2022-08-16T06:51:45.789Z,57.62
2022-08-16T06:54:16.619Z,58.48
2022-08-16T06:56:43.638Z,58.80
2022-08-16T06:59:13.666Z,58.80
2022-08-16T07:01:54.388Z,57.78
2022-08-16T07:04:33.420Z,57.40
2022-08-16T07:07:20.373Z,56.13
2022-08-16T07:09:51.394Z,55.64
2022-08-16T07:12:19.464Z,53.92
2022-08-16T07:14:49.471Z,53.26
2022-08-16T07:17:22.991Z,53.05
2022-08-16T07:20:02.479Z,52.74
2022-08-16T07:22:41.372Z,53.14
2022-08-16T07:25:18.474Z,52.27
2022-08-16T07:27:45.560Z,51.22
2022-08-16T07:30:39.193Z,51.31
2022-08-16T07:33:07.234Z,51.20
2022-08-16T07:35:36.606Z,49.66
2022-08-16T07:38:12.013Z,50.96
2022-08-16T07:41:00.755Z,49.81
2022-08-16T07:43:29.711Z,50.57
2022-08-16T07:46:01.425Z,50.00
2022-08-16T07:48:29.753Z,49.82
2022-08-16T07:50:59.762Z,50.17
2022-08-16T07:53:32.330Z,49.69
2022-08-16T07:56:04.397Z,50.20
2022-08-16T07:58:37.851Z,50.48
2022-08-16T08:01:12.463Z,50.14
2022-08-16T08:03:50.125Z,51.21
2022-08-16T08:06:27.715Z,50.28
2022-08-16T08:08:59.232Z,49.18
2022-08-16T08:11:29.401Z,49.10
2022-08-16T08:14:03.609Z,49.75
2022-08-16T08:16:37.512Z,49.47
2022-08-16T08:19:09.421Z,49.52
2022-08-16T08:22:01.177Z,49.21
2022-08-16T08:24:33.145Z,48.62
2022-08-16T08:27:04.412Z,48.64
2022-08-16T08:29:37.174Z,48.06
2022-08-16T08:32:58.045Z,48.19
2022-08-16T08:35:00.503Z,48.09
2022-08-16T08:37:54.818Z,46.37
2022-08-16T08:40:19.371Z,47.29
2022-08-16T08:42:57.803Z,47.33
2022-08-16T08:45:48.917Z,47.29
2022-08-16T08:48:34.835Z,47.68
2022-08-16T08:51:09.153Z,48.03
2022-08-16T08:53:46.652Z,47.62
2022-08-16T08:56:26.540Z,48.82
2022-08-16T08:59:06.037Z,48.63
2022-08-16T09:01:43.078Z,48.44
2022-08-16T09:04:24.163Z,48.42
2022-08-16T09:06:53.602Z,48.71
2022-08-16T09:09:22.894Z,47.94
2022-08-16T09:12:06.018Z,47.99
2022-08-16T09:14:50.806Z,47.45
2022-08-16T09:17:47.112Z,47.99
2022-08-16T09:20:13.546Z,45.66
2022-08-16T09:22:41.856Z,45.24
2022-08-16T09:25:11.326Z,45.94
2022-08-16T09:27:46.722Z,45.95
2022-08-16T09:30:34.378Z,44.05
2022-08-16T09:33:06.802Z,43.56
2022-08-16T09:35:37.289Z,42.15
2022-08-16T09:38:08.481Z,42.65
2022-08-16T09:40:42.300Z,42.79
2022-08-16T09:43:46.435Z,43.33
2022-08-16T09:46:00.734Z,41.80
2022-08-16T09:48:37.187Z,41.05
2022-08-16T09:51:13.051Z,40.60
2022-08-16T09:53:41.782Z,40.21
2022-08-16T09:56:36.368Z,39.11
2022-08-16T09:59:08.302Z,39.28
2022-08-16T10:01:36.669Z,36.75
2022-08-16T10:04:13.102Z,35.46
2022-08-16T10:06:54.232Z,35.17
2022-08-16T10:09:25.484Z,35.00
2022-08-16T10:12:31.059Z,34.59
2022-08-16T10:14:57.655Z,34.48
2022-08-16T10:17:24.912Z,32.44
2022-08-16T10:19:52.986Z,33.71
2022-08-16T10:22:22.923Z,33.10
2022-08-16T10:24:59.345Z,33.71
2022-08-16T10:27:28.889Z,34.25
2022-08-16T10:30:01.033Z,34.59
2022-08-16T10:32:30.307Z,34.44
2022-08-16T10:34:57.717Z,34.69
2022-08-16T10:37:32.716Z,33.86
2022-08-16T10:40:29.132Z,33.92
2022-08-16T10:42:56.522Z,33.71
2022-08-16T10:45:23.388Z,34.39
2022-08-16T10:47:58.861Z,33.93
2022-08-16T10:50:30.552Z,34.22
2022-08-16T10:52:59.452Z,32.26
2022-08-16T10:55:44.163Z,30.20
2022-08-16T10:58:13.441Z,29.34
2022-08-16T11:00:46.157Z,29.58
2022-08-16T11:06:00.805Z,29.21
2022-08-16T11:08:36.095Z,27.70
2022-08-16T11:11:12.964Z,27.17
2022-08-16T11:14:05.956Z,26.74
2022-08-16T11:19:22.801Z,26.39
2022-08-16T11:24:42.221Z,27.84
2022-08-16T11:27:19.922Z,28.47
2022-08-16T11:29:52.865Z,29.91
2022-08-16T11:32:30.005Z,30.18
2022-08-16T11:35:16.276Z,31.12
2022-08-16T11:40:52.170Z,30.62
2022-08-16T11:43:23.727Z,30.70
2022-08-16T11:45:54.889Z,29.45
2022-08-16T11:48:28.651Z,29.91
2022-08-16T11:50:56.383Z,28.79
2022-08-16T11:53:24.269Z,29.90
2022-08-16T11:55:55.385Z,31.55
2022-08-16T11:58:26.495Z,32.68
2022-08-16T12:00:57.538Z,34.08
2022-08-16T12:03:34.288Z,34.96
2022-08-16T12:06:10.630Z,35.96
2022-08-16T12:08:39.567Z,36.17
2022-08-16T12:11:08.249Z,37.07
2022-08-16T12:13:36.169Z,37.70
2022-08-16T12:16:02.983Z,37.40
2022-08-16T12:18:30.405Z,37.95
2022-08-16T12:20:58.292Z,37.24
2022-08-16T12:23:26.914Z,36.58
2022-08-16T12:25:53.717Z,37.02
2022-08-16T12:28:25.379Z,37.12
2022-08-16T12:31:07.640Z,33.51
2022-08-16T12:33:42.746Z,31.28
2022-08-16T12:36:12.980Z,32.65
2022-08-16T12:38:47.982Z,33.44
2022-08-16T12:41:24.696Z,33.80
2022-08-16T12:43:57.272Z,35.00
2022-08-16T12:46:28.126Z,34.03
2022-08-16T12:49:00.463Z,31.95
2022-08-16T12:51:58.033Z,28.35
2022-08-16T12:54:22.910Z,26.88
2022-08-16T12:56:50.273Z,25.75
2022-08-16T12:59:20.405Z,26.17
2022-08-16T13:01:50.305Z,27.48
2022-08-16T13:04:20.317Z,29.60
2022-08-16T13:06:48.694Z,30.47
2022-08-16T13:09:20.977Z,32.01
2022-08-16T13:12:03.731Z,32.54
2022-08-16T13:14:37.940Z,34.25
2022-08-16T13:17:08.998Z,34.05
2022-08-16T13:20:05.503Z,35.03
2022-08-16T13:22:23.689Z,35.49
2022-08-16T13:24:52.518Z,35.46
2022-08-16T13:27:19.154Z,36.13
2022-08-16T13:29:50.060Z,36.34
2022-08-16T13:32:39.897Z,37.24
2022-08-16T13:35:08.153Z,37.27
2022-08-16T13:37:38.633Z,38.01
2022-08-16T13:40:07.335Z,38.64
2022-08-16T13:42:41.524Z,39.23
2022-08-16T13:45:15.619Z,38.89
2022-08-16T13:47:42.692Z,39.72
2022-08-16T13:50:11.091Z,39.95
2022-08-16T13:52:39.931Z,40.90
2022-08-16T13:55:17.608Z,40.96
2022-08-16T13:58:34.388Z,40.96
2022-08-16T14:00:31.652Z,40.98
2022-08-16T14:02:59.222Z,41.86
2022-08-16T14:05:27.256Z,42.00
2022-08-16T14:07:53.927Z,42.05
2022-08-16T14:10:21.111Z,42.49
2022-08-16T14:12:48.332Z,42.74
2022-08-16T14:15:16.170Z,42.79
2022-08-16T14:18:15.434Z,43.07
2022-08-16T14:20:30.055Z,42.89
2022-08-16T14:22:57.121Z,42.46
2022-08-16T14:25:24.488Z,42.39
2022-08-16T14:27:52.331Z,41.74
2022-08-16T14:30:21.625Z,41.76
2022-08-16T14:33:07.142Z,42.88
2022-08-16T14:35:52.826Z,42.31
2022-08-16T14:38:39.462Z,42.90
2022-08-16T14:41:25.621Z,43.31
2022-08-16T14:44:11.289Z,43.37
2022-08-16T14:46:56.854Z,45.11
2022-08-16T14:49:42.288Z,43.99
2022-08-16T14:52:54.187Z,44.21
2022-08-16T14:55:36.487Z,45.19
2022-08-16T14:58:34.719Z,46.08
2022-08-16T15:01:23.739Z,46.69
2022-08-16T15:04:08.994Z,47.06
2022-08-16T15:06:35.585Z,48.01
2022-08-16T15:09:02.137Z,48.32
2022-08-16T15:11:28.757Z,47.81
2022-08-16T15:13:59.711Z,48.47
2022-08-16T15:16:28.878Z,49.18
2022-08-16T15:18:55.878Z,49.08
2022-08-16T15:21:22.519Z,49.59
2022-08-16T15:23:49.623Z,49.35
2022-08-16T15:26:34.514Z,49.43
2022-08-16T15:29:01.288Z,48.92
2022-08-16T15:31:28.026Z,49.95
2022-08-16T15:33:57.995Z,48.99
2022-08-16T15:36:25.843Z,49.50
2022-08-16T15:39:05.583Z,49.40
2022-08-16T15:41:42.729Z,49.60
2022-08-16T15:44:21.158Z,49.52
2022-08-16T15:46:55.805Z,49.65
2022-08-16T15:49:37.736Z,50.10
2022-08-16T15:52:15.725Z,50.02
2022-08-16T15:54:53.324Z,50.29
2022-08-16T15:57:24.188Z,50.74
2022-08-16T15:59:58.406Z,51.10
2022-08-16T16:02:38.585Z,51.50
2022-08-16T16:05:09.760Z,51.72
2022-08-16T16:07:40.824Z,52.41
2022-08-16T16:10:23.258Z,52.15
2022-08-16T16:12:59.647Z,52.33
2022-08-16T16:15:32.207Z,52.57
2022-08-16T16:17:59.380Z,52.04
2022-08-16T16:20:32.980Z,52.06
2022-08-16T16:23:10.607Z,52.57
2022-08-16T16:25:39.770Z,52.59
2022-08-16T16:29:05.958Z,52.36
2022-08-16T16:31:07.549Z,52.64
2022-08-16T16:33:39.865Z,53.22
2022-08-16T16:36:07.860Z,53.08
2022-08-16T16:38:35.268Z,52.93
2022-08-16T16:41:09.072Z,52.80
2022-08-16T16:43:41.762Z,52.63
2022-08-16T16:46:41.345Z,52.98
2022-08-16T16:48:57.228Z,52.53
2022-08-16T16:51:24.472Z,52.73
2022-08-16T16:53:56.911Z,52.72
2022-08-16T16:56:30.274Z,52.81
2022-08-16T16:59:08.808Z,53.23
2022-08-16T17:01:59.633Z,52.67
2022-08-16T17:04:32.868Z,52.70
2022-08-16T17:07:01.539Z,52.56
2022-08-16T17:09:28.741Z,52.46
2022-08-16T17:11:56.685Z,52.67
2022-08-16T17:14:33.392Z,53.43
2022-08-16T17:17:08.445Z,52.56
2022-08-16T17:19:41.228Z,52.72
2022-08-16T17:22:14.434Z,52.66
2022-08-16T17:24:50.981Z,52.69
2022-08-16T17:27:33.050Z,53.04
2022-08-16T17:30:15.547Z,53.38
2022-08-16T17:33:01.742Z,53.48
2022-08-16T17:35:37.493Z,53.53
2022-08-16T17:38:09.380Z,53.14
2022-08-16T17:40:47.458Z,52.96
2022-08-16T17:43:35.173Z,52.66
2022-08-16T17:46:04.842Z,53.61
2022-08-16T17:48:35.440Z,53.74
2022-08-16T17:51:06.368Z,53.16
2022-08-16T17:53:35.514Z,53.15
2022-08-16T17:56:03.474Z,53.06
2022-08-16T17:58:30.184Z,53.87
2022-08-16T18:01:00.058Z,53.53
2022-08-16T18:04:02.377Z,53.51
2022-08-16T18:06:23.874Z,53.51
2022-08-16T18:08:57.938Z,53.32
2022-08-16T18:11:30.166Z,53.84
2022-08-16T18:13:59.920Z,54.17
2022-08-16T18:16:26.891Z,53.76
2022-08-16T18:18:53.722Z,53.90
2022-08-16T18:21:39.087Z,54.16
2022-08-16T18:24:05.865Z,54.56
2022-08-16T18:26:32.853Z,54.66
2022-08-16T18:28:59.448Z,54.96
2022-08-16T18:31:26.171Z,55.36
2022-08-16T18:33:55.818Z,55.06
2022-08-16T18:36:24.215Z,55.32
2022-08-16T18:38:52.382Z,54.93
2022-08-16T18:41:21.424Z,55.06
2022-08-16T18:44:22.510Z,54.91
2022-08-16T18:46:34.827Z,55.11
2022-08-16T18:49:01.407Z,55.15
2022-08-16T18:51:27.981Z,55.40
2022-08-16T18:53:54.699Z,55.97
2022-08-16T18:56:21.460Z,56.16
2022-08-16T18:58:48.097Z,56.06
2022-08-16T19:01:14.700Z,56.54
2022-08-16T19:03:41.344Z,57.49
2022-08-16T19:06:13.684Z,57.18
2022-08-16T19:08:43.666Z,57.37
2022-08-16T19:11:15.003Z,57.56
2022-08-16T19:13:44.289Z,58.07
2022-08-16T19:16:12.349Z,57.86
2022-08-16T19:18:39.119Z,57.76
2022-08-16T19:21:06.968Z,57.64
2022-08-16T19:23:35.958Z,57.66
2022-08-16T19:26:25.738Z,56.87
2022-08-16T19:28:59.602Z,56.82
2022-08-16T19:31:34.269Z,57.19
2022-08-16T19:34:03.868Z,57.21
2022-08-16T19:36:36.921Z,56.70
2022-08-16T19:39:09.628Z,57.33
2022-08-16T19:41:53.120Z,56.92
2022-08-16T19:44:22.442Z,56.50
2022-08-16T19:46:49.599Z,56.90
2022-08-16T19:49:17.006Z,56.80
2022-08-16T19:51:45.731Z,56.44
2022-08-16T19:54:12.302Z,56.41
2022-08-16T19:56:39.113Z,56.58
2022-08-16T19:59:39.052Z,55.74
2022-08-16T20:01:53.163Z,55.97
2022-08-16T20:04:21.792Z,55.56
2022-08-16T20:06:48.925Z,55.77
2022-08-16T20:09:16.172Z,55.57
2022-08-16T20:11:46.629Z,55.27
2022-08-16T20:14:24.360Z,55.69
2022-08-16T20:16:54.191Z,55.91
2022-08-16T20:19:21.101Z,55.30
2022-08-16T20:21:47.852Z,55.20
2022-08-16T20:24:33.598Z,55.57
2022-08-16T20:27:02.245Z,55.80
2022-08-16T20:29:29.364Z,54.87
2022-08-16T20:31:56.014Z,54.81
2022-08-16T20:34:22.594Z,54.46
2022-08-16T20:36:49.261Z,54.40
2022-08-16T20:39:15.968Z,55.11
2022-08-16T20:41:43.392Z,54.10
2022-08-16T20:44:11.229Z,53.90
2022-08-16T20:46:39.780Z,53.80
2022-08-16T20:49:08.840Z,53.63
2022-08-16T20:51:47.048Z,53.83
2022-08-16T20:54:18.394Z,53.87
2022-08-16T20:56:45.657Z,54.03
2022-08-16T20:59:13.538Z,53.77
2022-08-16T21:01:46.494Z,53.71
2022-08-16T21:04:23.356Z,53.59
2022-08-16T21:06:55.033Z,54.27
2022-08-16T21:09:24.912Z,54.06
2022-08-16T21:11:53.406Z,54.02
2022-08-16T21:14:21.198Z,53.82
2022-08-16T21:16:48.702Z,54.44
2022-08-16T21:19:16.674Z,54.13
2022-08-16T21:21:43.975Z,54.31
2022-08-16T21:24:11.527Z,54.09
2022-08-16T21:26:38.903Z,54.31
2022-08-16T21:29:07.847Z,54.80
2022-08-16T21:31:40.367Z,54.29
2022-08-16T21:34:08.308Z,54.50
2022-08-16T21:36:36.537Z,54.64
2022-08-16T21:39:06.117Z,54.60
2022-08-16T21:41:33.942Z,55.29
2022-08-16T21:44:00.527Z,55.44
2022-08-16T21:46:27.115Z,55.20
2022-08-16T21:48:53.670Z,55.41
2022-08-16T21:51:20.602Z,55.35
2022-08-16T21:53:47.256Z,55.27
2022-08-16T21:56:17.060Z,55.46
2022-08-16T21:58:45.501Z,55.35
2022-08-16T22:01:13.145Z,55.86
2022-08-16T22:03:39.797Z,56.17
2022-08-16T22:06:14.119Z,56.08
2022-08-16T22:08:49.813Z,55.92
2022-08-16T22:11:22.924Z,55.96
2022-08-16T22:13:58.187Z,56.20
2022-08-16T22:16:32.094Z,56.18
2022-08-16T22:18:59.633Z,56.10
2022-08-16T22:21:26.656Z,56.56
2022-08-16T22:23:56.814Z,56.64
2022-08-16T22:26:30.101Z,56.67
2022-08-16T22:29:04.448Z,56.70
2022-08-16T22:31:31.252Z,56.56
2022-08-16T22:33:58.710Z,56.74
2022-08-16T22:36:28.524Z,56.81
2022-08-16T22:38:57.928Z,57.31
2022-08-16T22:41:25.468Z,57.21
2022-08-16T22:43:52.338Z,57.26
2022-08-16T22:46:19.582Z,57.48
2022-08-16T22:48:50.093Z,57.88
2022-08-16T22:51:17.707Z,57.74
2022-08-16T22:53:44.343Z,57.98
2022-08-16T22:56:11.031Z,58.18
2022-08-16T22:58:37.674Z,58.10
2022-08-16T23:01:09.770Z,58.52
2022-08-16T23:03:37.437Z,58.40
2022-08-16T23:06:05.536Z,58.51
2022-08-16T23:08:39.414Z,58.26
2022-08-16T23:11:12.846Z,58.67
2022-08-16T23:13:53.339Z,58.64
2022-08-16T23:16:28.741Z,58.95
2022-08-16T23:18:59.933Z,58.67
2022-08-16T23:21:26.658Z,58.54
2022-08-16T23:23:53.995Z,58.47
2022-08-16T23:26:46.266Z,58.33
2022-08-16T23:29:07.595Z,58.68
2022-08-16T23:31:49.173Z,58.60
2022-08-16T23:34:16.056Z,58.72
2022-08-16T23:36:42.686Z,58.81
2022-08-16T23:39:09.201Z,58.71
2022-08-16T23:41:35.938Z,58.92
2022-08-16T23:44:02.740Z,58.79
2022-08-16T23:46:49.352Z,58.65
2022-08-16T23:49:56.712Z,58.70
2022-08-16T23:52:07.681Z,58.66
2022-08-16T23:54:35.619Z,58.57
2022-08-16T23:57:03.138Z,58.75
2022-08-16T23:59:29.944Z,59.25
